Chesapeake, VA (23320)

9:18 PM EST on February 13, 2016 (GMT -0500)
South Greenbrier | | Change Station
CLOSE
Current Station
Personal Weather Station
Location: Chesapeake, VA
Elevation: 33 ft
Nearby Weather Stations

Elev 33 ft 36.74 °N, 76.22 °W | Updated 56 seconds ago

Clear
Clear
23.2 °F
Feels Like 18 °F
N
4.0
Wind Variable Wind from NW
Gusts 15.0 mph

Today
High -- | Low -- °F
--% Chance of Precip.
Yesterday
High -- | Low -- °F
Precip. -- in
Pressure 30.40 in
Visibility 10.0 miles
Clouds Clear
Windchill 18 °F
Dew Point 0 °F
Humidity 36%
Rainfall 0.00 in
Snow Depth Not available.
6:55 AM 5:42 PM
Waxing Crescent, 36% visible
METAR KNFE 140156Z AUTO 35010G16KT 10SM CLR M02/M18 A3039 RMK AO2 SLP294 T10221178
Pressure 30.40 in
Visibility 10.0 miles
Clouds Clear
Windchill 18 °F
Dew Point 0 °F
Humidity 36%
Rainfall 0.00 in
Snow Depth Not available.
6:55 AM 5:42 PM
Waxing Crescent, 36% visible
METAR KNFE 140156Z AUTO 35010G16KT 10SM CLR M02/M18 A3039 RMK AO2 SLP294 T10221178

10-Day Weather Forecast

Almanac

Astronomy

Feb. 13, 2016 Rise Set
Actual Time
Civil Twilight
Nautical Twilight
Astronomical Twilight
Moon
Length of Visible Light
Length of Day
Tomorrow will be .
, % of the Moon is Illuminated

Today's Extremes

State Highs State Lows

Community

WunderPhotos

Upload Photos

1,892,726 photos uploaded!

WunderBlog® & News

Nearby

Air Quality

  Air Quality AQ Index Pollutant
Not available.

Snow Depth

Station Depth Elevation

Earthquake Activity

City Distance Mag. Time & Date
Minimum magnitude displayed is 2.5.

Coastal Water Temperatures

Place Temperature

Stations

Nearby Weather Stations

Station Location Temp. Windchill Dew Point Humidity Wind Precip. Elev Updated Type
                   

Watches & Warnings

There are currently no watches in effect.